Time;durP1;ratioP1;P1;durP2;ratioP2;P2;SDS_P1;SDS_P2;PMS_P1;PMS_P2;Temp;Humidity;BMP_temperature;BMP_pressure;BME280_temperature;BME280_humidity;BME280_pressure;Samples;Min_cycle;Max_cycle;Signal;HPM_P1;HPM_P2
2023/01/01 00:01:52;;;;;;;7.53;6.33;;;;;;;3.60;100.00;99603.03;5033398;28;20123;-67
2023/01/01 00:04:18;;;;;;;7.07;6.00;;;;;;;3.57;100.00;99592.81;5033764;28;20033;-65
2023/01/01 00:06:44;;;;;;;8.87;7.57;;;;;;;3.53;100.00;99580.91;5032053;28;20036;-67
2023/01/01 00:11:53;;;;;;;8.17;6.40;;;;;;;3.48;100.00;99575.25;5032138;28;20260;-68
2023/01/01 00:14:19;;;;;;;6.87;5.50;;;;;;;3.48;100.00;99575.25;5031621;28;20374;-66
2023/01/01 00:17:10;;;;;;;9.10;5.97;;;;;;;3.47;100.00;99576.22;5032811;28;20507;-67
2023/01/01 00:19:35;;;;;;;9.63;8.17;;;;;;;3.47;100.00;99573.56;5031935;28;20268;-66
2023/01/01 00:22:01;;;;;;;9.90;8.03;;;;;;;3.42;100.00;99569.59;5014918;28;20175;-66
2023/01/01 00:24:26;;;;;;;7.97;6.47;;;;;;;3.43;100.00;99576.50;5015964;28;20543;-67
2023/01/01 00:26:52;;;;;;;11.20;9.33;;;;;;;3.45;100.00;99568.47;5033863;28;20029;-67
2023/01/01 00:29:17;;;;;;;10.57;6.93;;;;;;;3.43;100.00;99571.25;5033515;28;20461;-66
2023/01/01 00:31:44;;;;;;;7.50;6.63;;;;;;;3.41;100.00;99560.03;5032078;28;20029;-68
2023/01/01 00:34:10;;;;;;;10.63;6.80;;;;;;;3.41;100.00;99562.66;5031805;28;20025;-66
2023/01/01 00:36:35;;;;;;;7.77;6.03;;;;;;;3.44;100.00;99561.53;5031822;28;20260;-67
2023/01/01 00:39:02;;;;;;;7.93;6.10;;;;;;;3.38;100.00;99551.59;5031880;28;20029;-69
2023/01/01 00:41:28;;;;;;;9.40;6.03;;;;;;;3.39;100.00;99554.09;5031583;28;20057;-65
2023/01/01 00:43:53;;;;;;;8.40;7.03;;;;;;;3.40;100.00;99553.09;5013870;28;20299;-68
2023/01/01 00:46:20;;;;;;;7.53;6.00;;;;;;;3.42;100.00;99555.59;5031730;28;20041;-67
2023/01/01 00:48:46;;;;;;;9.03;7.13;;;;;;;3.45;100.00;99557.09;5031630;28;20260;-66
2023/01/01 00:51:11;;;;;;;8.23;6.50;;;;;;;3.47;100.00;99555.16;5013883;28;20025;-69
2023/01/01 00:53:37;;;;;;;8.37;6.23;;;;;;;3.52;100.00;99569.56;5013791;28;20472;-69
2023/01/01 00:56:03;;;;;;;7.43;6.27;;;;;;;3.51;100.00;99561.81;5031670;28;20021;-66
2023/01/01 00:58:28;;;;;;;6.17;5.57;;;;;;;3.49;100.00;99563.75;5032014;28;20381;-67
2023/01/01 01:00:54;;;;;;;8.30;5.93;;;;;;;3.52;100.00;99568.72;5032806;28;20500;-67
2023/01/01 01:03:29;;;;;;;8.03;5.50;;;;;;;3.53;100.00;99568.56;5036057;28;20112;-67
2023/01/01 01:05:56;;;;;;;6.23;5.33;;;;;;;3.39;100.00;99543.56;5035509;28;20025;-66
2023/01/01 01:08:22;;;;;;;7.47;5.83;;;;;;;3.45;100.00;99565.00;5035262;28;20263;-67
2023/01/01 01:10:47;;;;;;;6.93;5.83;;;;;;;3.41;100.00;99557.41;5017404;28;20611;-67
2023/01/01 01:13:14;;;;;;;7.13;5.40;;;;;;;3.45;100.00;99557.09;5035255;28;20046;-69
2023/01/01 01:15:40;;;;;;;6.17;5.10;;;;;;;3.49;100.00;99566.38;5035170;28;20377;-67
2023/01/01 01:18:05;;;;;;;6.73;5.50;;;;;;;3.48;100.00;99546.31;5035452;28;20252;-66
2023/01/01 01:20:31;;;;;;;7.30;5.70;;;;;;;3.49;100.00;99538.25;5035428;28;20104;-68
2023/01/01 01:22:56;;;;;;;9.57;5.50;;;;;;;3.50;100.00;99539.09;5035144;28;20030;-66
2023/01/01 01:25:22;;;;;;;6.80;5.23;;;;;;;3.50;100.00;99533.81;5035024;28;20079;-67
2023/01/01 01:27:47;;;;;;;6.03;5.07;;;;;;;3.59;100.00;99530.28;5035104;28;20037;-67
2023/01/01 01:30:13;;;;;;;6.17;4.40;;;;;;;3.59;100.00;99527.66;5035498;28;20029;-66
2023/01/01 01:32:38;;;;;;;7.13;4.17;;;;;;;3.56;100.00;99517.44;5035271;28;20039;-66
2023/01/01 01:35:04;;;;;;;5.30;4.70;;;;;;;3.62;100.00;99527.38;5035105;28;20047;-67
2023/01/01 01:37:30;;;;;;;4.60;4.17;;;;;;;3.56;100.00;99520.06;5034986;28;20029;-66
2023/01/01 01:39:55;;;;;;;4.70;4.20;;;;;;;3.62;100.00;99527.38;5034794;28;20060;-67
2023/01/01 01:42:21;;;;;;;4.73;3.87;;;;;;;3.61;100.00;99509.91;5034941;28;20456;-68
2023/01/01 01:44:53;;;;;;;5.23;4.00;;;;;;;3.70;100.00;99503.75;5034929;28;20084;-67
2023/01/01 01:47:24;;;;;;;4.30;3.30;;;;;;;3.71;100.00;99500.97;5034970;28;20045;-66
2023/01/01 01:50:01;;;;;;;3.77;3.37;;;;;;;3.70;100.00;99493.22;5034908;28;20287;-68
2023/01/01 01:52:30;;;;;;;;;;;;;;;3.74;100.00;99500.66;5035225;28;20268;-68
2023/01/01 01:54:56;;;;;;;5.70;4.93;;;;;;;3.68;100.00;99490.72;5035314;28;19932;-67
2023/01/01 01:57:23;;;;;;;6.40;3.90;;;;;;;3.73;100.00;99495.53;5018010;28;20264;-68
2023/01/01 01:59:52;;;;;;;4.47;3.70;;;;;;;3.76;100.00;99512.84;5035674;28;20325;-66
2023/01/01 02:02:33;;;;;;;4.70;4.07;;;;;;;3.80;100.00;99517.69;5034537;28;20299;-68
2023/01/01 02:04:58;;;;;;;4.43;3.00;;;;;;;3.79;100.00;99508.13;5034570;28;20256;-66
2023/01/01 02:07:26;;;;;;;4.17;3.77;;;;;;;3.76;100.00;99503.19;5034564;28;20616;-67
2023/01/01 02:09:52;;;;;;;4.37;3.70;;;;;;;3.77;100.00;99504.00;5034885;28;20029;-66
2023/01/01 02:12:18;;;;;;;4.10;3.70;;;;;;;3.76;100.00;99512.84;5034427;28;20276;-68
2023/01/01 02:14:45;;;;;;;3.53;3.13;;;;;;;3.70;100.00;99498.47;5033678;28;20281;-68
2023/01/01 02:17:33;;;;;;;3.83;3.43;;;;;;;3.82;100.00;99507.84;5034202;28;20068;-65
2023/01/01 02:20:10;;;;;;;;;;;;;;;3.87;100.00;99499.47;5034779;28;20260;-66
2023/01/01 02:22:54;;;;;;;5.20;3.20;;;;;;;3.89;100.00;99492.25;5034540;28;19963;-68
2023/01/01 02:25:40;;;;;;;3.70;3.33;;;;;;;3.87;100.00;99502.94;5034154;28;20260;-66
2023/01/01 02:28:18;;;;;;;3.63;3.33;;;;;;;3.83;100.00;99509.50;5003153;28;20256;-67
2023/01/01 02:30:46;;;;;;;3.33;2.92;;;;;;;3.77;100.00;99504.00;5034472;28;20256;-68
2023/01/01 02:33:17;;;;;;;5.05;3.42;;;;;;;3.77;100.00;99483.75;5033821;28;20057;-67
2023/01/01 02:35:51;;;;;;;3.83;3.53;;;;;;;3.87;100.00;99508.22;5033938;28;20029;-66
2023/01/01 02:38:22;;;;;;;4.20;3.70;;;;;;;3.84;100.00;99490.06;5033652;28;20352;-67
2023/01/01 02:40:54;;;;;;;3.20;2.93;;;;;;;3.84;100.00;99492.72;5034095;28;20367;-68
2023/01/01 02:43:19;;;;;;;3.47;3.17;;;;;;;3.84;100.00;99507.69;5033540;28;20291;-68
2023/01/01 02:45:45;;;;;;;5.23;3.37;;;;;;;3.74;100.00;99484.88;5016075;28;20248;-67
2023/01/01 02:48:41;;;;;;;8.13;3.20;;;;;;;3.83;100.00;99501.59;5033680;28;20472;-66
2023/01/01 02:51:45;;;;;;;4.13;3.67;;;;;;;3.82;100.00;99497.31;5033610;28;20039;-66
2023/01/01 02:54:11;;;;;;;3.90;3.20;;;;;;;3.82;100.00;99492.03;5033739;28;20256;-65
2023/01/01 02:56:58;;;;;;;3.43;3.13;;;;;;;3.77;100.00;99480.31;5033346;28;20262;-66
2023/01/01 03:02:31;;;;;;;3.70;3.40;;;;;;;3.73;100.00;99485.00;5033499;28;20342;-65
2023/01/01 03:05:18;;;;;;;3.83;3.43;;;;;;;3.77;100.00;99478.50;5033286;28;20029;-66
2023/01/01 03:08:09;;;;;;;4.97;3.37;;;;;;;3.77;100.00;99486.41;5033350;28;20025;-66
2023/01/01 03:11:01;;;;;;;3.53;3.20;;;;;;;3.79;100.00;99487.06;5033392;28;20272;-67
2023/01/01 03:13:41;;;;;;;4.37;3.50;;;;;;;3.77;100.00;99488.19;5033118;28;20280;-69
2023/01/01 03:16:29;;;;;;;5.43;4.10;;;;;;;3.77;100.00;99488.19;5032882;28;20636;-67
2023/01/01 03:19:10;;;;;;;3.47;3.17;;;;;;;3.75;100.00;99477.78;5004611;28;20256;-67
2023/01/01 03:22:10;;;;;;;3.33;3.03;;;;;;;3.76;100.00;99487.38;5033225;28;20017;-68
2023/01/01 03:24:58;;;;;;;3.83;3.43;;;;;;;3.76;100.00;99475.97;4999450;28;20269;-67
2023/01/01 03:27:33;;;;;;;5.90;3.30;;;;;;;3.78;100.00;99480.16;5033188;28;20252;-68
2023/01/01 03:30:06;;;;;;;4.47;3.40;;;;;;;3.78;100.00;99490.69;5033071;28;20272;-66
2023/01/01 03:35:24;;;;;;;5.17;2.90;;;;;;;3.84;100.00;99492.72;5032877;28;20354;-65
2023/01/01 03:37:54;;;;;;;4.23;3.77;;;;;;;3.92;100.00;99505.13;5032571;28;20252;-68
2023/01/01 03:40:21;;;;;;;8.20;3.50;;;;;;;3.91;100.00;99487.66;5032639;28;20287;-66
2023/01/01 03:42:53;;;;;;;3.97;3.63;;;;;;;3.94;100.00;99490.00;5032320;28;20341;-68
2023/01/01 03:45:29;;;;;;;5.20;3.47;;;;;;;3.95;100.00;99487.19;5015031;28;20287;-64
2023/01/01 03:47:56;;;;;;;4.17;3.67;;;;;;;3.94;100.00;99475.00;5032424;28;20255;-66
2023/01/01 03:50:34;;;;;;;3.63;3.30;;;;;;;3.97;100.00;99489.69;5014668;28;20315;-66
2023/01/01 03:53:08;;;;;;;3.63;3.00;;;;;;;4.01;100.00;99485.75;5032529;28;20274;-67
2023/01/01 03:55:42;;;;;;;4.73;3.73;;;;;;;3.88;100.00;99480.06;5032159;28;20245;-67
2023/01/01 03:58:16;;;;;;;4.90;2.97;;;;;;;4.00;100.00;99495.47;5032465;28;20256;-69
2023/01/01 04:00:49;;;;;;;5.20;2.93;;;;;;;4.00;100.00;99508.66;5032273;28;20286;-65
2023/01/01 04:03:21;;;;;;;3.90;3.30;;;;;;;4.02;100.00;99501.41;5032260;28;20284;-67
2023/01/01 04:05:47;;;;;;;5.00;3.47;;;;;;;4.01;100.00;99502.41;5032056;28;20268;-66
2023/01/01 04:08:14;;;;;;;3.83;3.27;;;;;;;4.00;100.00;99495.47;5032161;28;20318;-66
2023/01/01 04:10:49;;;;;;;3.33;2.97;;;;;;;3.99;100.00;99496.44;5032151;28;20032;-66
2023/01/01 04:13:16;;;;;;;4.90;3.43;;;;;;;4.08;100.00;99507.09;5032018;28;20339;-69
2023/01/01 04:15:43;;;;;;;4.28;3.63;;;;;;;4.09;100.00;99503.47;5031937;28;20648;-67
2023/01/01 04:18:10;;;;;;;11.00;3.73;;;;;;;4.13;100.00;99504.81;5032487;28;20421;-67
2023/01/01 04:20:35;;;;;;;4.87;3.63;;;;;;;4.01;100.00;99475.22;5031915;28;20279;-66
2023/01/01 04:23:01;;;;;;;5.70;2.70;;;;;;;4.13;100.00;99479.31;5032494;28;20033;-66
2023/01/01 04:25:28;;;;;;;8.90;3.40;;;;;;;4.15;100.00;99484.41;5032217;28;20095;-68
2023/01/01 04:27:53;;;;;;;10.17;3.60;;;;;;;4.18;100.00;99486.75;5032069;28;20794;-65
2023/01/01 04:30:19;;;;;;;10.13;3.30;;;;;;;4.20;100.00;99492.69;5031862;28;20256;-67
2023/01/01 04:32:45;;;;;;;8.07;2.93;;;;;;;4.22;100.00;99477.53;5031902;28;20401;-67
2023/01/01 04:35:13;;;;;;;6.03;2.93;;;;;;;4.21;100.00;99491.69;5037232;28;20063;-67
2023/01/01 04:37:40;;;;;;;8.43;3.70;;;;;;;4.24;100.00;99497.50;5043991;28;20268;-66
2023/01/01 04:40:07;;;;;;;8.77;3.23;;;;;;;4.22;100.00;99490.72;5040176;28;20263;-66
2023/01/01 04:42:32;;;;;;;8.87;3.47;;;;;;;4.25;100.00;99496.50;5038209;28;20288;-67
2023/01/01 04:44:58;;;;;;;8.17;3.10;;;;;;;4.25;100.00;99498.31;5038421;28;20267;-67
2023/01/01 04:47:25;;;;;;;5.97;3.63;;;;;;;4.22;100.00;99482.81;5020515;28;20120;-66
2023/01/01 04:49:51;;;;;;;7.30;3.80;;;;;;;4.24;100.00;99508.03;5038116;28;20040;-68
2023/01/01 04:52:18;;;;;;;7.63;3.37;;;;;;;4.24;100.00;99504.56;5038604;28;20334;-68
2023/01/01 04:54:43;;;;;;;7.57;3.27;;;;;;;4.18;100.00;99498.09;5020665;28;20338;-66
2023/01/01 04:57:09;;;;;;;7.27;3.30;;;;;;;4.19;100.00;99496.31;5038452;28;20026;-68
2023/01/01 04:59:34;;;;;;;7.97;3.57;;;;;;;4.22;100.00;99498.63;5038377;28;20025;-66
2023/01/01 05:02:00;;;;;;;6.67;3.50;;;;;;;4.22;100.00;99498.63;5003999;28;20064;-70
2023/01/01 05:04:26;;;;;;;3.97;2.60;;;;;;;4.24;100.00;99507.22;5020768;28;20029;-66
2023/01/01 05:06:51;;;;;;;8.83;3.97;;;;;;;4.31;100.00;99516.16;5038334;28;20032;-66
2023/01/01 05:09:17;;;;;;;4.60;3.13;;;;;;;4.34;100.00;99518.50;5038182;28;20029;-66
2023/01/01 05:11:42;;;;;;;8.27;3.50;;;;;;;4.24;100.00;99501.94;5038107;28;20108;-66
2023/01/01 05:14:10;;;;;;;6.97;2.87;;;;;;;4.31;100.00;99516.16;5020180;28;20068;-68
2023/01/01 05:16:38;;;;;;;11.07;4.03;;;;;;;4.32;100.00;99513.34;5037910;28;20029;-64
2023/01/01 05:19:04;;;;;;;10.93;3.93;;;;;;;4.31;100.00;99510.88;5038074;28;20338;-67
2023/01/01 05:21:32;;;;;;;9.93;3.83;;;;;;;4.23;100.00;99522.19;5020111;28;20263;-66
2023/01/01 05:24:09;;;;;;;9.63;3.43;;;;;;;4.18;100.00;99523.63;5038029;28;20405;-66
2023/01/01 05:26:41;;;;;;;7.43;3.57;;;;;;;4.15;100.00;99550.28;5037937;28;20351;-66
2023/01/01 05:29:06;;;;;;;7.37;3.60;;;;;;;4.04;100.00;99554.78;5037947;28;20314;-69
2023/01/01 05:31:34;;;;;;;9.13;3.30;;;;;;;3.94;100.00;99543.50;5038260;28;20715;-67
2023/01/01 05:34:00;;;;;;;13.27;3.77;;;;;;;3.90;100.00;99557.94;5038018;28;20021;-67
2023/01/01 05:36:28;;;;;;;8.43;3.40;;;;;;;3.87;100.00;99557.41;5037647;28;20604;-67
2023/01/01 05:38:54;;;;;;;6.72;2.90;;;;;;;3.79;100.00;99579.25;5037994;28;20267;-67
2023/01/01 05:41:21;;;;;;;11.80;3.60;;;;;;;3.73;100.00;99569.28;5037930;28;20033;-67
2023/01/01 05:43:47;;;;;;;11.93;2.90;;;;;;;3.64;100.00;99564.91;5037696;28;20418;-65
2023/01/01 05:46:18;;;;;;;7.23;3.70;;;;;;;3.72;100.00;99581.63;5038111;28;20353;-67
2023/01/01 05:48:44;;;;;;;7.47;3.07;;;;;;;3.69;100.00;99588.97;5034858;28;20028;-67
2023/01/01 05:51:20;;;;;;;8.57;3.23;;;;;;;3.71;100.00;99585.22;5034783;28;20265;-67
2023/01/01 05:53:48;;;;;;;9.20;3.50;;;;;;;3.65;100.00;99577.91;5034662;28;20052;-66
2023/01/01 05:56:15;;;;;;;9.90;3.00;;;;;;;3.59;100.00;99582.94;5034582;28;20029;-67
2023/01/01 05:58:41;;;;;;;11.37;3.93;;;;;;;3.55;100.00;99594.75;5034663;28;20037;-70
2023/01/01 06:01:23;;;;;;;8.33;3.60;;;;;;;3.40;100.00;99592.59;5034526;28;20318;-66
2023/01/01 06:03:49;;;;;;;11.63;3.73;;;;;;;3.12;100.00;99588.25;5034491;28;20292;-67
2023/01/01 06:06:20;;;;;;;15.53;3.83;;;;;;;2.71;100.00;99560.56;5034430;28;20260;-66
2023/01/01 06:08:57;;;;;;;9.23;3.77;;;;;;;2.83;100.00;99604.13;5034163;28;20279;-69
2023/01/01 06:11:23;;;;;;;11.63;3.00;;;;;;;2.61;100.00;99579.00;5034380;28;20306;-65
2023/01/01 06:13:55;;;;;;;9.57;3.30;;;;;;;2.65;100.00;99601.41;5034223;28;20375;-67
2023/01/01 06:16:22;;;;;;;11.47;3.67;;;;;;;2.56;100.00;99596.97;5034234;28;20272;-67
2023/01/01 06:18:47;;;;;;;6.90;3.37;;;;;;;2.60;100.00;99608.03;5034174;28;20282;-67
2023/01/01 06:21:16;;;;;;;12.97;3.57;;;;;;;2.45;100.00;99586.59;5034980;28;20462;-67
2023/01/01 06:23:42;;;;;;;7.57;3.28;;;;;;;2.54;100.00;99614.66;5036328;28;20036;-65
2023/01/01 06:26:16;;;;;;;8.03;3.53;;;;;;;2.52;100.00;99621.88;5034723;28;20025;-71
2023/01/01 06:28:42;;;;;;;7.63;3.00;;;;;;;2.46;100.00;99615.38;5036130;28;20274;-66
2023/01/01 06:31:10;;;;;;;8.30;3.57;;;;;;;2.43;100.00;99628.78;5035216;28;20311;-65
2023/01/01 06:33:36;;;;;;;12.67;2.90;;;;;;;2.39;100.00;99631.84;5040174;28;20279;-64
2023/01/01 06:36:04;;;;;;;8.00;2.83;;;;;;;2.30;100.00;99622.13;5039976;28;20263;-66
2023/01/01 06:38:32;;;;;;;17.73;5.03;;;;;;;2.31;100.00;99623.78;5039944;28;20336;-68
2023/01/01 06:41:02;;;;;;;10.23;3.57;;;;;;;2.22;100.00;99635.97;5036527;28;20116;-69
2023/01/01 06:43:30;;;;;;;10.47;4.13;;;;;;;2.15;100.00;99633.06;5033762;28;20288;-68
2023/01/01 06:46:11;;;;;;;9.97;4.60;;;;;;;2.11;100.00;99620.34;5033828;28;20272;-66
2023/01/01 06:48:37;;;;;;;6.57;2.67;;;;;;;2.11;100.00;99636.09;5033466;28;20712;-68
2023/01/01 06:51:09;;;;;;;12.07;3.23;;;;;;;2.12;100.00;99651.72;5033788;28;20339;-66
2023/01/01 06:53:35;;;;;;;11.23;3.20;;;;;;;2.06;100.00;99657.53;5033688;28;20025;-67
2023/01/01 06:56:00;;;;;;;10.27;4.13;;;;;;;2.04;100.00;99664.69;5033450;28;20325;-66
2023/01/01 06:58:26;;;;;;;11.90;3.30;;;;;;;1.96;100.00;99646.13;5033210;28;20025;-67
2023/01/01 07:00:52;;;;;;;9.20;3.53;;;;;;;1.95;100.00;99654.97;5015543;28;20029;-66
2023/01/01 07:03:17;;;;;;;10.20;3.63;;;;;;;1.98;100.00;99674.88;5033456;28;20032;-67
2023/01/01 07:05:42;;;;;;;14.77;5.03;;;;;;;1.97;100.00;99687.19;5015838;28;20033;-66
2023/01/01 07:08:08;;;;;;;12.10;4.63;;;;;;;1.85;100.00;99660.22;5033233;28;20043;-66
2023/01/01 07:10:33;;;;;;;9.40;4.63;;;;;;;1.94;100.00;99695.34;5033622;28;20094;-66
2023/01/01 07:13:03;;;;;;;11.47;4.33;;;;;;;1.90;100.00;99699.19;5033077;28;20469;-66
2023/01/01 07:15:30;;;;;;;14.23;4.20;;;;;;;1.86;100.00;99689.94;5032945;28;20132;-67
2023/01/01 07:17:56;;;;;;;10.40;3.90;;;;;;;1.89;100.00;99696.72;5033614;28;20288;-67
2023/01/01 07:20:21;;;;;;;13.30;4.67;;;;;;;1.87;100.00;99699.47;4999633;28;20025;-67
2023/01/01 07:22:47;;;;;;;13.80;4.13;;;;;;;1.82;100.00;99709.53;5016203;28;20036;-67
2023/01/01 07:25:14;;;;;;;13.03;5.13;;;;;;;1.88;100.00;99722.13;4999591;28;20083;-69
2023/01/01 07:27:40;;;;;;;12.33;4.63;;;;;;;1.89;100.00;99715.91;5033515;28;20067;-69
2023/01/01 07:30:06;;;;;;;11.33;4.67;;;;;;;1.83;100.00;99703.31;5015421;28;20712;-67
2023/01/01 07:32:32;;;;;;;13.13;4.80;;;;;;;1.86;100.00;99706.50;5015800;28;20483;-67
2023/01/01 07:34:57;;;;;;;10.17;3.87;;;;;;;1.84;100.00;99705.81;5033178;28;20391;-67
2023/01/01 07:37:25;;;;;;;13.13;3.43;;;;;;;1.84;100.00;99710.22;5033281;28;20481;-70
2023/01/01 07:39:51;;;;;;;14.47;3.90;;;;;;;1.85;100.00;99711.91;5032578;28;20466;-67
2023/01/01 07:42:17;;;;;;;10.03;3.03;;;;;;;1.87;100.00;99720.47;5032596;28;20295;-67
2023/01/01 07:44:42;;;;;;;13.77;4.47;;;;;;;1.90;100.00;99720.19;5032324;28;20264;-67
2023/01/01 07:47:20;;;;;;;13.33;3.37;;;;;;;1.91;100.00;99726.28;5032751;28;20033;-65
2023/01/01 07:49:46;;;;;;;14.60;4.55;;;;;;;1.91;100.00;99721.88;5032644;28;20493;-67
2023/01/01 07:52:11;;;;;;;8.77;3.73;;;;;;;1.92;100.00;99727.94;5032996;28;20034;-66
2023/01/01 07:54:37;;;;;;;13.63;4.17;;;;;;;1.88;100.00;99727.38;5034621;28;20091;-64
2023/01/01 07:57:02;;;;;;;11.77;3.50;;;;;;;1.85;100.00;99732.91;5033477;28;20033;-67
2023/01/01 07:59:28;;;;;;;12.90;3.80;;;;;;;1.79;100.00;99738.69;5032413;28;20112;-66
2023/01/01 08:01:53;;;;;;;13.17;4.40;;;;;;;1.75;100.00;99742.53;5014665;28;20029;-67
2023/01/01 08:04:19;;;;;;;13.97;4.27;;;;;;;1.77;100.00;99749.31;5032399;28;20087;-69
2023/01/01 08:06:44;;;;;;;10.37;3.60;;;;;;;1.76;100.00;99728.44;5032517;28;20109;-65
2023/01/01 08:09:10;;;;;;;10.33;4.13;;;;;;;1.92;100.00;99734.03;5032764;28;20033;-65
2023/01/01 08:11:35;;;;;;;9.70;3.23;;;;;;;2.13;100.00;99763.69;5031819;28;20022;-69
2023/01/01 08:14:01;;;;;;;8.40;3.03;;;;;;;2.15;100.00;99747.78;5032470;28;20393;-68
2023/01/01 08:16:27;;;;;;;13.60;3.40;;;;;;;2.14;100.00;99739.09;5032351;28;20075;-66
2023/01/01 08:18:52;;;;;;;9.73;3.40;;;;;;;2.26;100.00;99757.34;5032396;28;20018;-65
2023/01/01 08:21:18;;;;;;;11.10;4.30;;;;;;;2.23;100.00;99741.88;5032069;28;20025;-68
2023/01/01 08:23:43;;;;;;;9.37;3.33;;;;;;;2.26;100.00;99752.94;5014583;28;20025;-66
2023/01/01 08:26:16;;;;;;;5.40;3.53;;;;;;;2.24;100.00;99749.63;5014098;28;20108;-66
2023/01/01 08:28:42;;;;;;;11.77;4.17;;;;;;;2.39;100.00;99758.78;5032047;28;20036;-66
2023/01/01 08:31:08;;;;;;;12.77;3.30;;;;;;;2.46;100.00;99764.34;5032012;28;20268;-66
2023/01/01 08:33:33;;;;;;;7.27;2.77;;;;;;;2.48;100.00;99762.41;5031792;28;20257;-70
2023/01/01 08:35:59;;;;;;;8.87;3.33;;;;;;;2.47;100.00;99752.84;5014281;28;20037;-66
2023/01/01 08:38:25;;;;;;;13.87;3.00;;;;;;;2.58;100.00;99760.59;5031891;28;20033;-69
2023/01/01 08:40:51;;;;;;;14.17;3.63;;;;;;;2.59;100.00;99771.94;5031808;28;20720;-68
2023/01/01 08:43:17;;;;;;;11.43;2.80;;;;;;;2.50;100.00;99755.22;5031943;28;20370;-67
2023/01/01 08:45:44;;;;;;;10.10;3.20;;;;;;;2.47;100.00;99777.34;5031812;28;20036;-66
2023/01/01 08:48:10;;;;;;;5.90;2.73;;;;;;;2.43;100.00;99775.94;5014040;28;20057;-67
2023/01/01 08:50:36;;;;;;;8.57;2.67;;;;;;;2.44;100.00;99777.59;5032170;28;20264;-66
2023/01/01 08:53:02;;;;;;;9.30;3.87;;;;;;;2.43;100.00;99775.13;5031709;28;20322;-66
2023/01/01 08:55:28;;;;;;;10.33;3.90;;;;;;;2.40;100.00;99767.50;5013667;28;20461;-68
2023/01/01 08:57:53;;;;;;;6.40;3.03;;;;;;;2.39;100.00;99760.59;5031965;28;20272;-68
2023/01/01 09:00:19;;;;;;;9.97;3.27;;;;;;;2.40;100.00;99759.63;5014078;28;20248;-69
2023/01/01 09:02:45;;;;;;;7.33;3.30;;;;;;;2.46;100.00;99769.59;5031565;28;20492;-67
2023/01/01 09:05:11;;;;;;;5.97;2.67;;;;;;;2.48;100.00;99793.94;5013891;28;20263;-66
2023/01/01 09:07:36;;;;;;;7.70;3.27;;;;;;;2.47;100.00;99787.84;5013875;28;20028;-69
2023/01/01 09:10:02;;;;;;;10.30;3.10;;;;;;;2.49;100.00;99788.53;5031472;28;20073;-66
2023/01/01 09:12:29;;;;;;;8.53;2.83;;;;;;;2.45;100.00;99783.69;5014198;28;20045;-66
2023/01/01 09:14:56;;;;;;;8.73;3.23;;;;;;;2.50;100.00;99784.13;5031707;28;20304;-66
2023/01/01 09:17:22;;;;;;;7.70;3.37;;;;;;;2.50;99.66;99792.00;5031381;28;20268;-66
2023/01/01 09:19:47;;;;;;;8.93;2.93;;;;;;;2.41;99.37;99785.75;5031595;28;20257;-69
2023/01/01 09:22:13;;;;;;;5.50;3.03;;;;;;;2.41;99.57;99782.31;5031857;28;20128;-67
2023/01/01 09:24:38;;;;;;;10.47;2.97;;;;;;;2.44;98.99;99782.03;5016610;28;20481;-67
2023/01/01 09:27:04;;;;;;;7.10;2.53;;;;;;;2.40;99.21;99775.38;5001832;28;20370;-68
2023/01/01 09:29:30;;;;;;;4.20;2.23;;;;;;;2.43;99.08;99796.97;5017782;28;20036;-67
2023/01/01 09:31:55;;;;;;;5.83;2.43;;;;;;;2.44;98.88;99798.63;5035356;28;20021;-68
2023/01/01 09:34:21;;;;;;;5.20;2.50;;;;;;;2.40;98.93;99793.78;5035180;28;20116;-67
2023/01/01 09:36:46;;;;;;;7.60;2.63;;;;;;;2.37;98.79;99794.06;5035171;28;20112;-66
2023/01/01 09:39:14;;;;;;;4.53;2.77;;;;;;;2.30;98.91;99785.03;5035077;28;20411;-70
2023/01/01 09:41:42;;;;;;;6.03;2.60;;;;;;;2.34;99.16;99789.06;5017766;28;20029;-68
2023/01/01 09:44:45;;;;;;;8.30;3.47;;;;;;;2.27;99.37;99780.03;5034873;28;20375;-67
2023/01/01 09:47:20;;;;;;;9.03;3.33;;;;;;;2.28;100.00;99787.78;5034688;28;20025;-67
2023/01/01 09:49:46;;;;;;;7.13;2.77;;;;;;;2.28;99.78;99781.69;5034476;28;20355;-68
2023/01/01 09:52:14;;;;;;;9.50;2.30;;;;;;;2.22;99.70;99783.06;5034932;28;20264;-66
2023/01/01 09:54:47;;;;;;;6.10;2.50;;;;;;;2.16;99.90;99781.81;5016848;28;20615;-67
2023/01/01 09:57:13;;;;;;;6.67;3.00;;;;;;;2.13;100.00;99781.25;5034706;28;20252;-67
2023/01/01 09:59:39;;;;;;;10.50;2.60;;;;;;;2.11;100.00;99775.28;5034564;28;20279;-67
2023/01/01 10:02:41;;;;;;;5.50;2.50;;;;;;;2.06;100.00;99773.06;5034149;28;20021;-68
2023/01/01 10:05:28;;;;;;;8.43;2.90;;;;;;;2.01;100.00;99769.16;5034901;28;20030;-69
2023/01/01 10:07:59;;;;;;;10.33;2.90;;;;;;;1.96;100.00;99780.06;5034563;28;20276;-66
2023/01/01 10:10:27;;;;;;;5.43;2.53;;;;;;;1.97;100.00;99780.88;5034718;28;20375;-65
2023/01/01 10:13:32;;;;;;;5.07;2.67;;;;;;;1.99;100.00;99778.97;5016652;28;20759;-67
2023/01/01 10:16:36;;;;;;;4.83;2.17;;;;;;;2.03;100.00;99783.84;5034521;28;20052;-67
2023/01/01 10:19:36;;;;;;;9.63;2.55;;;;;;;2.07;100.00;99779.97;5034570;28;20268;-71
2023/01/01 10:22:08;;;;;;;6.27;2.40;;;;;;;1.96;100.00;99766.94;5034221;28;20035;-66
2023/01/01 10:24:43;;;;;;;7.40;3.77;;;;;;;2.09;100.00;99788.56;5034236;28;20290;-68
2023/01/01 10:27:22;;;;;;;4.93;2.50;;;;;;;2.13;100.00;99795.22;5034040;28;20263;-66
2023/01/01 10:29:50;;;;;;;5.00;2.30;;;;;;;2.20;99.68;99799.94;5034422;28;20608;-68
2023/01/01 10:32:20;;;;;;;8.70;3.08;;;;;;;2.29;99.40;99801.75;5034555;28;20268;-68
2023/01/01 10:34:47;;;;;;;7.30;2.90;;;;;;;2.37;99.53;99804.56;5033847;28;20029;-68
2023/01/01 10:37:14;;;;;;;12.27;4.00;;;;;;;2.43;98.85;99804.03;5034025;28;20321;-67
2023/01/01 10:39:40;;;;;;;7.43;2.60;;;;;;;2.44;98.20;99810.94;5033817;28;20268;-67
2023/01/01 10:42:06;;;;;;;6.33;2.47;;;;;;;2.41;98.13;99793.66;5016024;28;20354;-70
2023/01/01 10:44:33;;;;;;;9.63;2.70;;;;;;;2.43;98.37;99793.50;5033967;28;20831;-68
2023/01/01 10:47:13;;;;;;;7.37;3.03;;;;;;;2.42;98.60;99794.47;5033709;28;20424;-67
2023/01/01 10:50:06;;;;;;;4.40;2.40;;;;;;;2.45;98.29;99789.78;5016214;28;20256;-67
2023/01/01 10:52:39;;;;;;;7.20;3.30;;;;;;;2.53;98.36;99806.66;5033876;28;20655;-70
2023/01/01 10:55:24;;;;;;;4.87;2.83;;;;;;;2.62;98.51;99814.59;5033378;28;20268;-68
2023/01/01 10:57:50;;;;;;;6.90;3.47;;;;;;;2.51;97.39;99798.09;5015866;28;20612;-67
2023/01/01 11:00:21;;;;;;;7.80;3.00;;;;;;;2.64;97.71;99814.47;5033398;28;20272;-65
2023/01/01 11:03:04;;;;;;;6.53;2.90;;;;;;;2.66;97.32;99812.53;5033495;28;20048;-68
2023/01/01 11:05:29;;;;;;;12.50;3.17;;;;;;;2.64;97.19;99819.72;5015721;28;20272;-66
2023/01/01 11:07:55;;;;;;;8.30;2.83;;;;;;;2.59;97.95;99806.13;5033412;28;20343;-66
2023/01/01 11:10:24;;;;;;;4.60;2.90;;;;;;;2.72;97.20;99825.13;5033432;28;20066;-67
2023/01/01 11:12:53;;;;;;;10.13;2.90;;;;;;;2.67;96.82;99835.22;5037752;28;20108;-69
2023/01/01 11:15:33;;;;;;;6.45;2.50;;;;;;;2.68;97.48;99847.41;5034643;28;20284;-66
2023/01/01 11:18:12;;;;;;;7.20;2.67;;;;;;;2.62;97.59;99840.88;5033299;28;20034;-67
2023/01/01 11:20:37;;;;;;;10.00;2.38;;;;;;;2.44;97.44;99834.59;5033229;28;20256;-68
2023/01/01 11:23:28;;;;;;;5.87;2.67;;;;;;;2.30;98.85;99846.28;5015745;28;20037;-68
2023/01/01 11:26:02;;;;;;;6.77;3.00;;;;;;;2.26;99.63;99852.75;5033206;28;20121;-67
2023/01/01 11:28:30;;;;;;;7.03;2.90;;;;;;;2.13;99.81;99847.75;5033236;28;20267;-68
2023/01/01 11:31:18;;;;;;;5.45;2.80;;;;;;;2.02;100.00;99846.97;5033986;28;20287;-67
2023/01/01 11:33:52;;;;;;;7.72;2.90;;;;;;;1.84;100.00;99846.75;5033489;28;20079;-68
2023/01/01 11:36:32;;;;;;;6.73;2.60;;;;;;;1.72;100.00;99832.00;5033113;28;20045;-67
2023/01/01 11:39:17;;;;;;;5.53;2.67;;;;;;;1.68;100.00;99846.34;5032809;28;20294;-67
2023/01/01 11:41:49;;;;;;;7.37;3.20;;;;;;;1.47;100.00;99822.75;5032785;28;20260;-68
2023/01/01 11:44:39;;;;;;;7.20;2.70;;;;;;;1.58;100.00;99842.84;5032389;28;20303;-66
2023/01/01 11:47:06;;;;;;;5.53;2.60;;;;;;;1.54;100.00;99850.16;5032188;28;20735;-65
2023/01/01 11:49:33;;;;;;;9.47;3.00;;;;;;;1.51;100.00;99853.88;5014846;28;20260;-67
2023/01/01 11:51:59;;;;;;;9.73;3.23;;;;;;;1.49;100.00;99863.66;5032647;28;20703;-68
2023/01/01 11:54:27;;;;;;;10.47;2.60;;;;;;;1.45;100.00;99862.25;5032448;28;20260;-67
2023/01/01 11:57:01;;;;;;;7.32;2.90;;;;;;;1.49;100.00;99874.16;5032480;28;20028;-67